Portada
METAR-TAF:

METAR-TAF

Aeroports :

Aeroport de Colonia

Colonia del Sacramento, Uruguai

latitud: 34-27S, longitud: 057-50W, altitud: 23 m

Observació

L'informe es va fer fa 38 minuts, a les 22:00 UTC
Vent 6 kt del Est/Sud-Est
Temperatura 23°C
Humitat 57%
Pressió 1011 hPa
Visibilitat 10 km o més
sense núvols per sota de 1500 mi sense presència de cumulonimbus.

METAR: SUCA 062200Z 12006KT CAVOK 23/14 Q1011

Hora: 19:38 (22:38 UTC)

Pronòstic

L'informe es va fer fa 5 hores i 8 minuts, a les 17:30 UTC
Pronòstic vàlid del 06 a les 18 UTC al 07 a les 18 UTC
Vent 8 kt del Sud-Oest
Visibilitat 10 km o més
sense núvols per sota de 1500 mi sense presència de cumulonimbus.
Evolucionant progressivament
l' 06 a les 22 UTC al 07 a les 02 UTC
Vent 15 kt del Est/Sud-Est
Probabilitat 40% :
Temporalment
l' 06 a les 22 UTC al 07 a les 04 UTC
Vent 15 kt del Est/Sud-Est amb ràfegues de 25 kt

TAF: SUCA 061730Z 0618/0718 22008KT CAVOK TX27/0718Z TN14/0709Z BECMG 0622/0702 12015KT PROB40 TEMPO 0622/0704 12015G25KT

Observacions i pronòstics meteorològics de més de 4000 aeroports (METAR i TAF).

Les estacions disponibles són els punts grocs i vermells al mapa.

Posi el ratolí al punt desitjat per veure el nom de l'estació.

Feu clic per veure les observacions i els pronòstics meteorològics.

Per canviar el mapa: feu clic els botons verds amb una creu de color negre per apropar; al botó verd amb un guió per allunyar la imatge; o en les fletxes verdes per a mapes adjacents.


METAR-TAF: